Terminal Aerodrome Forecast
Issued by NWS Binghamton, NY

Home | Current Version | Previous Version | Text Only | Print | Product List | Glossary On
Versions: 1 2 3 4 5 6 7 8 9 10 11 12 13 14 15 16 17
000
FTUS41 KBGM 301100 RRA
TAFSYR
TAF
KSYR 301141Z 3012/3112 29012G20KT 3SM -SHSN BR OVC012
     FM301500 31015G28KT 4SM -SHSN BKN015 OVC025
     FM310000 31012G22KT P6SM -SHSN BKN025
     FM310600 31010KT P6SM SCT025=

USA.gov is the U.S. government's official web portal to all federal, state and local government web resources and services.